createdAt,value
2022-10-15T00:02:23.803Z,100.00
2022-10-15T00:04:53.997Z,100.00
2022-10-15T00:07:21.844Z,100.00
2022-10-15T00:09:49.589Z,100.00
2022-10-15T00:12:18.409Z,100.00
2022-10-15T00:14:47.923Z,100.00
2022-10-15T00:17:15.298Z,100.00
2022-10-15T00:19:44.070Z,100.00
2022-10-15T00:22:11.527Z,100.00
2022-10-15T00:24:38.897Z,100.00
2022-10-15T00:27:06.551Z,100.00
2022-10-15T00:29:34.475Z,100.00
2022-10-15T00:32:05.011Z,100.00
2022-10-15T00:34:33.847Z,100.00
2022-10-15T00:37:03.245Z,100.00
2022-10-15T00:39:30.690Z,100.00
2022-10-15T00:41:58.385Z,100.00
2022-10-15T00:44:26.698Z,100.00
2022-10-15T00:47:15.078Z,100.00
2022-10-15T00:50:11.830Z,100.00
2022-10-15T00:52:44.930Z,100.00
2022-10-15T00:55:19.508Z,100.00
2022-10-15T00:57:48.909Z,100.00
2022-10-15T01:00:18.356Z,100.00
2022-10-15T01:02:50.688Z,100.00
2022-10-15T01:05:18.778Z,100.00
2022-10-15T01:07:47.168Z,100.00
2022-10-15T01:10:16.793Z,100.00
2022-10-15T01:13:21.613Z,100.00
2022-10-15T01:16:01.229Z,100.00
2022-10-15T01:18:35.888Z,100.00
2022-10-15T01:21:28.324Z,100.00
2022-10-15T01:24:24.373Z,100.00
2022-10-15T01:27:14.929Z,100.00
2022-10-15T01:30:01.224Z,100.00
2022-10-15T01:32:30.632Z,100.00
2022-10-15T01:35:33.107Z,100.00
2022-10-15T01:38:08.894Z,100.00
2022-10-15T01:40:59.152Z,100.00
2022-10-15T01:43:44.448Z,100.00
2022-10-15T01:46:16.860Z,100.00
2022-10-15T01:48:46.305Z,100.00
2022-10-15T01:51:15.229Z,100.00
2022-10-15T01:53:44.297Z,100.00
2022-10-15T01:56:14.767Z,100.00
2022-10-15T01:58:43.758Z,100.00
2022-10-15T02:01:11.852Z,100.00
2022-10-15T02:03:52.895Z,100.00
2022-10-15T02:06:34.386Z,100.00
2022-10-15T02:09:13.508Z,100.00
2022-10-15T02:12:15.351Z,100.00
2022-10-15T02:14:52.217Z,100.00
2022-10-15T02:17:31.291Z,100.00
2022-10-15T02:20:23.833Z,100.00
2022-10-15T02:22:57.124Z,100.00
2022-10-15T02:25:26.118Z,100.00
2022-10-15T02:27:55.934Z,100.00
2022-10-15T02:30:27.419Z,100.00
2022-10-15T02:32:56.865Z,100.00
2022-10-15T02:35:25.077Z,100.00
2022-10-15T02:37:54.429Z,100.00
2022-10-15T02:40:23.151Z,100.00
2022-10-15T02:42:52.059Z,100.00
2022-10-15T02:45:20.855Z,100.00
2022-10-15T02:47:48.661Z,100.00
2022-10-15T02:50:16.012Z,100.00
2022-10-15T02:52:43.388Z,100.00
2022-10-15T02:55:10.759Z,100.00
2022-10-15T02:57:38.519Z,100.00
2022-10-15T03:00:06.773Z,100.00
2022-10-15T03:02:34.221Z,100.00
2022-10-15T03:05:01.629Z,100.00
2022-10-15T03:07:29.140Z,100.00
2022-10-15T03:09:56.600Z,100.00
2022-10-15T03:12:26.062Z,100.00
2022-10-15T03:14:53.905Z,100.00
2022-10-15T03:17:21.597Z,100.00
2022-10-15T03:19:50.868Z,100.00
2022-10-15T03:22:18.736Z,100.00
2022-10-15T03:24:46.057Z,100.00
2022-10-15T03:27:13.516Z,100.00
2022-10-15T03:29:42.509Z,100.00
2022-10-15T03:32:13.448Z,100.00
2022-10-15T03:34:40.929Z,100.00
2022-10-15T03:37:08.341Z,100.00
2022-10-15T03:39:35.591Z,100.00
2022-10-15T03:42:02.959Z,100.00
2022-10-15T03:44:30.360Z,100.00
2022-10-15T03:46:57.545Z,100.00
2022-10-15T03:49:24.819Z,100.00
2022-10-15T03:51:52.064Z,100.00
2022-10-15T03:54:19.379Z,100.00
2022-10-15T03:56:46.794Z,100.00
2022-10-15T03:59:14.371Z,100.00
2022-10-15T04:01:42.010Z,100.00
2022-10-15T04:04:11.356Z,100.00
2022-10-15T04:06:40.415Z,100.00
2022-10-15T04:09:11.391Z,100.00
2022-10-15T04:11:39.975Z,100.00
2022-10-15T04:14:07.247Z,100.00
2022-10-15T04:16:34.754Z,100.00
2022-10-15T04:19:07.402Z,100.00
2022-10-15T04:21:39.045Z,100.00
2022-10-15T04:24:06.549Z,100.00
2022-10-15T04:26:34.143Z,100.00
2022-10-15T04:29:01.655Z,100.00
2022-10-15T04:31:29.989Z,100.00
2022-10-15T04:33:58.002Z,100.00
2022-10-15T04:36:25.193Z,100.00
2022-10-15T04:38:55.730Z,100.00
2022-10-15T04:41:25.987Z,100.00
2022-10-15T04:43:53.539Z,100.00
2022-10-15T04:46:22.379Z,100.00
2022-10-15T04:48:50.141Z,100.00
2022-10-15T04:51:20.852Z,100.00
2022-10-15T04:53:49.465Z,100.00
2022-10-15T04:56:19.593Z,100.00
2022-10-15T04:58:48.614Z,100.00
2022-10-15T05:01:18.688Z,100.00
2022-10-15T05:03:47.655Z,100.00
2022-10-15T05:06:17.963Z,100.00
2022-10-15T05:08:46.689Z,100.00
2022-10-15T05:11:21.998Z,100.00
2022-10-15T05:13:53.166Z,100.00
2022-10-15T05:16:24.280Z,100.00
2022-10-15T05:19:00.918Z,100.00
2022-10-15T05:21:28.962Z,100.00
2022-10-15T05:23:56.319Z,100.00
2022-10-15T05:26:25.602Z,100.00
2022-10-15T05:28:53.095Z,100.00
2022-10-15T05:31:30.922Z,100.00
2022-10-15T05:33:59.214Z,100.00
2022-10-15T05:36:29.323Z,100.00
2022-10-15T05:39:01.662Z,100.00
2022-10-15T05:41:29.788Z,100.00
2022-10-15T05:43:58.279Z,100.00
2022-10-15T05:46:28.439Z,100.00
2022-10-15T05:48:57.667Z,100.00
2022-10-15T05:51:26.866Z,100.00
2022-10-15T05:53:55.398Z,100.00
2022-10-15T05:56:23.286Z,100.00
2022-10-15T05:58:53.420Z,100.00
2022-10-15T06:01:25.517Z,100.00
2022-10-15T06:03:53.207Z,100.00
2022-10-15T06:06:26.318Z,100.00
2022-10-15T06:08:54.706Z,100.00
2022-10-15T06:11:23.225Z,100.00
2022-10-15T06:13:50.429Z,100.00
2022-10-15T06:16:23.537Z,100.00
2022-10-15T06:18:57.333Z,100.00
2022-10-15T06:21:25.724Z,100.00
2022-10-15T06:23:53.194Z,100.00
2022-10-15T06:26:20.477Z,100.00
2022-10-15T06:28:48.027Z,100.00
2022-10-15T06:31:15.432Z,100.00
2022-10-15T06:33:45.332Z,100.00
2022-10-15T06:36:14.011Z,100.00
2022-10-15T06:38:44.278Z,100.00
2022-10-15T06:41:11.690Z,100.00
2022-10-15T06:43:44.200Z,100.00
2022-10-15T06:46:11.704Z,100.00
2022-10-15T06:48:39.739Z,100.00
2022-10-15T06:51:07.372Z,100.00
2022-10-15T06:53:34.882Z,100.00
2022-10-15T06:56:03.923Z,100.00
2022-10-15T06:58:33.220Z,100.00
2022-10-15T07:01:06.055Z,100.00
2022-10-15T07:03:36.250Z,100.00
2022-10-15T07:06:05.415Z,100.00
2022-10-15T07:08:38.822Z,100.00
2022-10-15T07:11:09.507Z,100.00
2022-10-15T07:13:37.614Z,100.00
2022-10-15T07:16:13.412Z,100.00
2022-10-15T07:18:40.885Z,100.00
2022-10-15T07:21:11.807Z,100.00
2022-10-15T07:23:39.843Z,100.00
2022-10-15T07:26:08.348Z,100.00
2022-10-15T07:28:48.541Z,100.00
2022-10-15T07:31:16.494Z,100.00
2022-10-15T07:33:46.878Z,100.00
2022-10-15T07:36:15.411Z,100.00
2022-10-15T07:38:45.900Z,100.00
2022-10-15T07:41:15.917Z,100.00
2022-10-15T07:43:45.615Z,100.00
2022-10-15T07:46:16.146Z,100.00
2022-10-15T07:48:43.458Z,100.00
2022-10-15T07:51:12.125Z,100.00
2022-10-15T07:53:39.672Z,100.00
2022-10-15T07:56:11.636Z,100.00
2022-10-15T07:58:40.647Z,100.00
2022-10-15T08:01:11.743Z,100.00
2022-10-15T08:03:39.338Z,100.00
2022-10-15T08:06:08.334Z,100.00
2022-10-15T08:08:36.589Z,100.00
2022-10-15T08:11:10.484Z,100.00
2022-10-15T08:13:42.165Z,100.00
2022-10-15T08:16:12.706Z,100.00
2022-10-15T08:18:40.346Z,100.00
2022-10-15T08:21:08.392Z,99.70
2022-10-15T08:23:36.007Z,95.03
2022-10-15T08:26:03.942Z,88.13
2022-10-15T08:28:32.548Z,82.28
2022-10-15T08:31:05.565Z,78.96
2022-10-15T08:33:35.012Z,76.92
2022-10-15T08:36:06.559Z,74.73
2022-10-15T08:38:35.537Z,72.97
2022-10-15T08:41:04.836Z,72.23
2022-10-15T08:43:38.275Z,69.40
2022-10-15T08:46:23.023Z,69.59
2022-10-15T08:48:54.452Z,69.58
2022-10-15T08:51:24.733Z,70.24
2022-10-15T08:53:56.337Z,72.09
2022-10-15T08:56:42.531Z,71.69
2022-10-15T08:59:28.660Z,71.14
2022-10-15T09:01:59.480Z,71.01
2022-10-15T09:04:50.585Z,70.39
2022-10-15T09:07:30.232Z,69.78
2022-10-15T09:10:07.964Z,69.37
2022-10-15T09:12:57.193Z,69.03
2022-10-15T09:15:31.090Z,67.93
2022-10-15T09:17:58.395Z,68.26
2022-10-15T09:20:32.223Z,67.88
2022-10-15T09:22:59.708Z,67.82
2022-10-15T09:25:33.722Z,69.42
2022-10-15T09:28:08.241Z,70.10
2022-10-15T09:30:43.791Z,70.28
2022-10-15T09:33:22.757Z,70.75
2022-10-15T09:36:00.560Z,70.48
2022-10-15T09:38:44.999Z,71.72
2022-10-15T09:41:41.834Z,69.07
2022-10-15T09:44:13.875Z,68.76
2022-10-15T09:46:49.331Z,68.32
2022-10-15T09:49:21.291Z,68.10
2022-10-15T09:52:02.038Z,69.88
2022-10-15T09:54:44.031Z,69.60
2022-10-15T09:57:16.047Z,70.77
2022-10-15T09:59:58.121Z,71.44
2022-10-15T10:02:28.507Z,70.12
2022-10-15T10:04:56.293Z,71.08
2022-10-15T10:07:35.765Z,72.33
2022-10-15T10:10:24.711Z,72.25
2022-10-15T10:12:52.601Z,70.16
2022-10-15T10:15:41.666Z,71.70
2022-10-15T10:18:19.842Z,71.54
2022-10-15T10:20:57.407Z,72.66
2022-10-15T10:23:32.006Z,71.81
2022-10-15T10:25:59.931Z,71.60
2022-10-15T10:28:32.220Z,73.39
2022-10-15T10:31:05.228Z,73.95
2022-10-15T10:33:42.254Z,75.44
2022-10-15T10:36:30.751Z,75.21
2022-10-15T10:39:28.198Z,75.64
2022-10-15T10:42:06.560Z,74.29
2022-10-15T10:44:46.401Z,74.30
2022-10-15T10:47:20.553Z,74.23
2022-10-15T10:49:56.339Z,75.18
2022-10-15T10:52:26.738Z,75.55
2022-10-15T10:55:02.891Z,76.20
2022-10-15T10:57:35.723Z,75.70
2022-10-15T11:00:04.875Z,75.54
2022-10-15T11:02:34.072Z,75.76
2022-10-15T11:05:01.855Z,75.54
2022-10-15T11:07:35.245Z,73.13
2022-10-15T11:10:25.325Z,72.02
2022-10-15T11:13:18.712Z,72.47
2022-10-15T11:15:53.793Z,72.50
2022-10-15T11:18:25.087Z,72.73
2022-10-15T11:21:19.730Z,72.43
2022-10-15T11:24:05.753Z,72.09
2022-10-15T11:26:59.280Z,72.22
2022-10-15T11:30:05.591Z,71.34
2022-10-15T11:33:05.591Z,71.21
2022-10-15T11:35:52.826Z,69.77
2022-10-15T11:38:30.665Z,70.08
2022-10-15T11:41:19.617Z,69.71
2022-10-15T11:44:40.913Z,69.31
2022-10-15T11:47:34.663Z,68.82
2022-10-15T11:50:22.651Z,69.22
2022-10-15T11:52:55.624Z,68.46
2022-10-15T11:55:41.521Z,68.99
2022-10-15T11:58:16.375Z,69.05
2022-10-15T12:00:50.436Z,68.71
2022-10-15T12:03:24.950Z,68.85
2022-10-15T12:05:55.489Z,69.49
2022-10-15T12:08:24.098Z,70.68
2022-10-15T12:11:01.279Z,70.35
2022-10-15T12:13:55.519Z,70.55
2022-10-15T12:16:55.332Z,70.72
2022-10-15T12:19:27.224Z,71.45
2022-10-15T12:21:54.456Z,71.73
2022-10-15T12:24:45.142Z,73.02
2022-10-15T12:27:36.151Z,71.92
2022-10-15T12:30:03.345Z,73.91
2022-10-15T12:32:31.602Z,73.83
2022-10-15T12:35:01.151Z,73.35
2022-10-15T12:37:30.021Z,75.21
2022-10-15T12:40:03.780Z,75.71
2022-10-15T12:42:35.080Z,76.38
2022-10-15T12:45:06.690Z,74.54
2022-10-15T12:47:50.027Z,73.93
2022-10-15T12:50:22.942Z,73.57
2022-10-15T12:52:57.872Z,72.95
2022-10-15T12:55:36.169Z,72.91
2022-10-15T12:58:26.474Z,73.46
2022-10-15T13:00:53.746Z,73.78
2022-10-15T13:03:32.395Z,74.71
2022-10-15T13:06:21.186Z,74.93
2022-10-15T13:08:54.760Z,75.37
2022-10-15T13:11:45.125Z,76.64
2022-10-15T13:14:12.422Z,75.02
2022-10-15T13:16:45.106Z,73.70
2022-10-15T13:19:39.567Z,74.22
2022-10-15T13:22:21.905Z,74.68
2022-10-15T13:24:49.342Z,74.07
2022-10-15T13:27:30.080Z,75.67
2022-10-15T13:30:04.581Z,77.35
2022-10-15T13:32:55.547Z,76.31
2022-10-15T13:35:31.379Z,77.26
2022-10-15T13:37:59.881Z,77.04
2022-10-15T13:40:28.869Z,74.85
2022-10-15T13:43:03.472Z,74.66
2022-10-15T13:45:31.356Z,75.72
2022-10-15T13:47:58.944Z,76.38
2022-10-15T13:50:37.233Z,77.17
2022-10-15T13:53:22.881Z,76.79
2022-10-15T13:55:56.862Z,76.50
2022-10-15T13:58:29.653Z,76.64
2022-10-15T14:01:03.699Z,78.41
2022-10-15T14:03:32.502Z,78.88
2022-10-15T14:06:21.212Z,79.74
2022-10-15T14:08:50.804Z,79.67
2022-10-15T14:11:19.125Z,81.10
2022-10-15T14:13:57.142Z,80.55
2022-10-15T14:16:41.035Z,80.12
2022-10-15T14:19:15.688Z,80.11
2022-10-15T14:21:47.284Z,80.34
2022-10-15T14:24:19.120Z,80.28
2022-10-15T14:26:47.355Z,80.41
2022-10-15T14:29:38.965Z,81.39
2022-10-15T14:32:29.665Z,81.35
2022-10-15T14:35:00.942Z,82.60
2022-10-15T14:37:42.999Z,82.19
2022-10-15T14:40:10.935Z,82.42
2022-10-15T14:42:40.489Z,83.08
2022-10-15T14:45:28.798Z,84.37
2022-10-15T14:47:58.117Z,84.30
2022-10-15T14:50:30.127Z,84.57
2022-10-15T14:52:58.803Z,84.90
2022-10-15T14:55:33.481Z,85.58
2022-10-15T14:58:08.089Z,86.07
2022-10-15T15:00:42.120Z,87.38
2022-10-15T15:03:21.343Z,88.85
2022-10-15T15:05:52.901Z,89.95
2022-10-15T15:08:21.157Z,90.96
2022-10-15T15:13:27.337Z,91.83
2022-10-15T15:15:56.981Z,91.92
2022-10-15T15:18:24.756Z,92.03
2022-10-15T15:20:55.040Z,92.70
2022-10-15T15:23:24.748Z,93.49
2022-10-15T15:25:54.177Z,94.37
2022-10-15T15:28:24.886Z,95.05
2022-10-15T15:30:58.996Z,95.54
2022-10-15T15:33:28.353Z,95.78
2022-10-15T15:36:01.197Z,95.32
2022-10-15T15:38:31.546Z,95.26
2022-10-15T15:41:04.912Z,95.63
2022-10-15T15:43:35.035Z,96.23
2022-10-15T15:46:02.565Z,96.02
2022-10-15T15:48:32.257Z,96.08
2022-10-15T15:51:05.685Z,96.36
2022-10-15T15:53:33.297Z,96.61
2022-10-15T15:56:00.680Z,97.20
2022-10-15T15:58:28.141Z,97.54
2022-10-15T16:00:56.156Z,98.18
2022-10-15T16:03:26.389Z,98.66
2022-10-15T16:05:55.359Z,98.47
2022-10-15T16:08:22.612Z,98.23
2022-10-15T16:11:09.887Z,98.90
2022-10-15T16:13:38.672Z,99.39
2022-10-15T16:16:06.179Z,100.00
2022-10-15T16:18:34.145Z,100.00
2022-10-15T16:21:09.041Z,100.00
2022-10-15T16:23:36.739Z,100.00
2022-10-15T16:26:03.939Z,100.00
2022-10-15T16:28:32.407Z,100.00
2022-10-15T16:31:29.647Z,100.00
2022-10-15T16:33:58.053Z,100.00
2022-10-15T16:36:26.425Z,100.00
2022-10-15T16:38:57.689Z,100.00
2022-10-15T16:41:25.167Z,100.00
2022-10-15T16:43:53.098Z,100.00
2022-10-15T16:46:23.257Z,100.00
2022-10-15T16:48:55.120Z,100.00
2022-10-15T16:51:25.282Z,100.00
2022-10-15T16:53:52.679Z,100.00
2022-10-15T16:56:22.835Z,100.00
2022-10-15T16:58:50.913Z,100.00
2022-10-15T17:01:21.560Z,100.00
2022-10-15T17:03:49.782Z,100.00
2022-10-15T17:06:21.804Z,100.00
2022-10-15T17:08:50.611Z,100.00
2022-10-15T17:11:22.377Z,100.00
2022-10-15T17:13:53.319Z,100.00
2022-10-15T17:16:32.846Z,100.00
2022-10-15T17:19:01.100Z,100.00
2022-10-15T17:21:29.801Z,100.00
2022-10-15T17:24:00.738Z,100.00
2022-10-15T17:26:33.554Z,100.00
2022-10-15T17:29:05.094Z,100.00
2022-10-15T17:31:32.711Z,100.00
2022-10-15T17:34:07.055Z,100.00
2022-10-15T17:36:43.159Z,100.00
2022-10-15T17:39:13.028Z,100.00
2022-10-15T17:41:41.580Z,100.00
2022-10-15T17:44:10.350Z,100.00
2022-10-15T17:46:38.699Z,100.00
2022-10-15T17:49:06.052Z,100.00
2022-10-15T17:51:34.936Z,100.00
2022-10-15T17:54:02.566Z,100.00
2022-10-15T17:56:31.813Z,100.00
2022-10-15T17:59:02.142Z,100.00
2022-10-15T18:04:23.318Z,100.00
2022-10-15T18:06:50.562Z,100.00
2022-10-15T18:09:18.519Z,100.00
2022-10-15T18:11:49.118Z,100.00
2022-10-15T18:14:18.573Z,100.00
2022-10-15T18:16:46.027Z,100.00
2022-10-15T18:19:14.250Z,100.00
2022-10-15T18:21:44.367Z,100.00
2022-10-15T18:24:14.609Z,100.00
2022-10-15T18:26:41.930Z,100.00
2022-10-15T18:29:09.116Z,100.00
2022-10-15T18:31:37.363Z,100.00
2022-10-15T18:34:04.641Z,100.00
2022-10-15T18:36:33.495Z,100.00
2022-10-15T18:39:00.816Z,100.00
2022-10-15T18:41:30.208Z,100.00
2022-10-15T18:43:59.627Z,100.00
2022-10-15T18:46:30.843Z,100.00
2022-10-15T18:48:59.540Z,100.00
2022-10-15T18:51:29.811Z,100.00
2022-10-15T18:53:59.707Z,100.00
2022-10-15T18:56:31.109Z,100.00
2022-10-15T18:58:58.319Z,100.00
2022-10-15T19:01:25.806Z,100.00
2022-10-15T19:04:07.554Z,100.00
2022-10-15T19:06:43.462Z,100.00
2022-10-15T19:09:17.510Z,100.00
2022-10-15T19:11:48.128Z,100.00
2022-10-15T19:14:16.646Z,100.00
2022-10-15T19:16:45.897Z,100.00
2022-10-15T19:19:17.969Z,100.00
2022-10-15T19:21:46.654Z,100.00
2022-10-15T19:24:15.319Z,100.00
2022-10-15T19:26:46.707Z,100.00
2022-10-15T19:29:16.425Z,100.00
2022-10-15T19:31:45.713Z,100.00
2022-10-15T19:34:19.259Z,100.00
2022-10-15T19:36:51.257Z,100.00
2022-10-15T19:39:21.685Z,100.00
2022-10-15T19:41:51.563Z,100.00
2022-10-15T19:44:25.394Z,100.00
2022-10-15T19:46:55.281Z,100.00
2022-10-15T19:49:24.960Z,100.00
2022-10-15T19:51:52.457Z,100.00
2022-10-15T19:54:19.872Z,100.00
2022-10-15T19:57:07.009Z,100.00
2022-10-15T19:59:34.209Z,100.00
2022-10-15T20:02:01.412Z,100.00
2022-10-15T20:04:28.684Z,100.00
2022-10-15T20:06:58.068Z,100.00
2022-10-15T20:09:25.629Z,100.00
2022-10-15T20:11:52.888Z,100.00
2022-10-15T20:14:22.653Z,100.00
2022-10-15T20:16:52.709Z,100.00
2022-10-15T20:19:21.936Z,100.00
2022-10-15T20:21:50.846Z,100.00
2022-10-15T20:24:18.155Z,100.00
2022-10-15T20:26:45.325Z,100.00
2022-10-15T20:29:17.311Z,100.00
2022-10-15T20:31:44.723Z,100.00
2022-10-15T20:34:12.020Z,100.00
2022-10-15T20:36:41.489Z,100.00
2022-10-15T20:39:09.086Z,100.00
2022-10-15T20:41:36.386Z,100.00
2022-10-15T20:44:05.568Z,100.00
2022-10-15T20:46:37.661Z,100.00
2022-10-15T20:49:09.695Z,100.00
2022-10-15T20:51:40.165Z,100.00
2022-10-15T20:54:10.877Z,100.00
2022-10-15T20:56:38.856Z,100.00
2022-10-15T20:59:07.741Z,100.00
2022-10-15T21:01:36.728Z,100.00
2022-10-15T21:04:04.736Z,100.00
2022-10-15T21:06:32.772Z,100.00
2022-10-15T21:09:00.860Z,100.00
2022-10-15T21:11:28.556Z,100.00
2022-10-15T21:13:55.975Z,100.00
2022-10-15T21:16:25.915Z,100.00
2022-10-15T21:18:57.036Z,100.00
2022-10-15T21:21:24.437Z,100.00
2022-10-15T21:23:55.593Z,100.00
2022-10-15T21:26:23.004Z,100.00
2022-10-15T21:29:14.950Z,100.00
2022-10-15T21:31:43.564Z,100.00
2022-10-15T21:34:14.999Z,100.00
2022-10-15T21:36:45.257Z,100.00
2022-10-15T21:39:12.521Z,100.00
2022-10-15T21:41:39.970Z,100.00
2022-10-15T21:44:08.161Z,100.00
2022-10-15T21:46:36.334Z,100.00
2022-10-15T21:49:04.136Z,100.00
2022-10-15T21:51:33.815Z,100.00
2022-10-15T21:54:02.386Z,100.00
2022-10-15T21:56:31.703Z,100.00
2022-10-15T21:58:59.256Z,100.00
2022-10-15T22:01:34.631Z,100.00
2022-10-15T22:04:12.189Z,100.00
2022-10-15T22:06:40.202Z,100.00
2022-10-15T22:09:09.019Z,100.00
2022-10-15T22:11:41.257Z,100.00
2022-10-15T22:14:12.261Z,100.00
2022-10-15T22:16:41.279Z,100.00
2022-10-15T22:19:11.504Z,100.00
2022-10-15T22:21:39.340Z,100.00
2022-10-15T22:24:17.502Z,100.00
2022-10-15T22:26:50.903Z,100.00
2022-10-15T22:29:20.726Z,100.00
2022-10-15T22:31:49.018Z,100.00
2022-10-15T22:34:17.317Z,100.00
2022-10-15T22:36:45.108Z,100.00
2022-10-15T22:39:14.804Z,100.00
2022-10-15T22:41:44.799Z,100.00
2022-10-15T22:44:19.981Z,100.00
2022-10-15T22:46:49.606Z,100.00
2022-10-15T22:49:19.748Z,100.00
2022-10-15T22:51:47.962Z,100.00
2022-10-15T22:54:17.225Z,100.00
2022-10-15T22:56:45.383Z,100.00
2022-10-15T22:59:18.301Z,100.00
2022-10-15T23:01:45.794Z,100.00
2022-10-15T23:04:15.193Z,100.00
2022-10-15T23:06:45.596Z,100.00
2022-10-15T23:09:18.017Z,100.00
2022-10-15T23:11:46.603Z,100.00
2022-10-15T23:14:16.129Z,100.00
2022-10-15T23:16:45.788Z,100.00
2022-10-15T23:19:21.031Z,100.00
2022-10-15T23:21:52.961Z,100.00
2022-10-15T23:24:22.229Z,100.00
2022-10-15T23:26:49.893Z,100.00
2022-10-15T23:29:20.283Z,100.00
2022-10-15T23:31:48.379Z,100.00
2022-10-15T23:34:23.871Z,100.00
2022-10-15T23:36:51.194Z,100.00
2022-10-15T23:39:24.633Z,100.00
2022-10-15T23:41:52.439Z,100.00
2022-10-15T23:44:25.634Z,100.00
2022-10-15T23:46:54.816Z,100.00
2022-10-15T23:49:22.127Z,100.00
2022-10-15T23:51:49.382Z,100.00
2022-10-15T23:54:18.348Z,100.00
2022-10-15T23:56:47.160Z,100.00
2022-10-15T23:59:15.358Z,100.00
